sensor_id;sensor_type;location;lat;lon;timestamp;pressure;altitude;pressure_sealevel;temperature;humidity
51123;BME280;37162;41.724;13.346;2023-02-07T00:01:54;97744.63;;;15.36;51.34
51123;BME280;37162;41.724;13.346;2023-02-07T00:04:19;97743.78;;;15.35;51.48
51123;BME280;37162;41.724;13.346;2023-02-07T00:06:44;97754.50;;;15.35;51.25
51123;BME280;37162;41.724;13.346;2023-02-07T00:09:11;97753.69;;;15.34;51.16
51123;BME280;37162;41.724;13.346;2023-02-07T00:11:37;97744.16;;;15.25;51.23
51123;BME280;37162;41.724;13.346;2023-02-07T00:14:06;97746.66;;;15.33;51.16
51123;BME280;37162;41.724;13.346;2023-02-07T00:16:32;97737.38;;;15.29;51.28
51123;BME280;37162;41.724;13.346;2023-02-07T00:18:57;97757.78;;;15.37;51.35
51123;BME280;37162;41.724;13.346;2023-02-07T00:21:23;97752.25;;;15.39;51.24
51123;BME280;37162;41.724;13.346;2023-02-07T00:23:50;97755.94;;;15.38;50.93
51123;BME280;37162;41.724;13.346;2023-02-07T00:26:18;97746.25;;;15.30;50.92
51123;BME280;37162;41.724;13.346;2023-02-07T00:28:45;97762.97;;;15.39;50.66
51123;BME280;37162;41.724;13.346;2023-02-07T00:31:16;97776.34;;;15.39;50.64
51123;BME280;37162;41.724;13.346;2023-02-07T00:33:43;97788.06;;;15.38;50.61
51123;BME280;37162;41.724;13.346;2023-02-07T00:36:13;97787.06;;;15.39;50.49
51123;BME280;37162;41.724;13.346;2023-02-07T00:38:39;97783.34;;;15.40;50.54
51123;BME280;37162;41.724;13.346;2023-02-07T00:41:05;97776.34;;;15.39;50.47
51123;BME280;37162;41.724;13.346;2023-02-07T00:43:31;97776.34;;;15.39;50.36
51123;BME280;37162;41.724;13.346;2023-02-07T00:45:58;97781.72;;;15.39;50.36
51123;BME280;37162;41.724;13.346;2023-02-07T00:48:24;97787.25;;;15.37;50.46
51123;BME280;37162;41.724;13.346;2023-02-07T00:50:50;97785.38;;;15.38;50.28
51123;BME280;37162;41.724;13.346;2023-02-07T00:53:15;97788.06;;;15.38;50.30
51123;BME280;37162;41.724;13.346;2023-02-07T00:55:41;97790.75;;;15.38;50.29
51123;BME280;37162;41.724;13.346;2023-02-07T00:58:06;97786.41;;;15.37;50.24
51123;BME280;37162;41.724;13.346;2023-02-07T01:00:31;97797.13;;;15.37;50.24
51123;BME280;37162;41.724;13.346;2023-02-07T01:02:57;97804.53;;;15.34;50.41
51123;BME280;37162;41.724;13.346;2023-02-07T01:05:23;97806.00;;;15.37;50.36
51123;BME280;37162;41.724;13.346;2023-02-07T01:07:48;97797.09;;;15.30;50.37
51123;BME280;37162;41.724;13.346;2023-02-07T01:10:13;97808.22;;;15.33;50.28
51123;BME280;37162;41.724;13.346;2023-02-07T01:12:39;97812.38;;;15.36;50.50
51123;BME280;37162;41.724;13.346;2023-02-07T01:15:05;97815.88;;;15.37;50.64
51123;BME280;37162;41.724;13.346;2023-02-07T01:17:32;97809.69;;;15.36;50.80
51123;BME280;37162;41.724;13.346;2023-02-07T01:19:58;97817.72;;;15.36;50.82
51123;BME280;37162;41.724;13.346;2023-02-07T01:22:24;97818.75;;;15.35;50.78
51123;BME280;37162;41.724;13.346;2023-02-07T01:24:54;97811.94;;;15.32;50.64
51123;BME280;37162;41.724;13.346;2023-02-07T01:27:23;97815.06;;;15.36;50.49
51123;BME280;37162;41.724;13.346;2023-02-07T01:29:49;97806.78;;;15.31;50.32
51123;BME280;37162;41.724;13.346;2023-02-07T01:32:15;97789.66;;;15.25;50.18
51123;BME280;37162;41.724;13.346;2023-02-07T01:34:40;97807.22;;;15.34;50.17
51123;BME280;37162;41.724;13.346;2023-02-07T01:37:06;97803.72;;;15.34;50.06
51123;BME280;37162;41.724;13.346;2023-02-07T01:39:31;97808.19;;;15.27;50.30
51123;BME280;37162;41.724;13.346;2023-02-07T01:41:57;97799.34;;;15.26;50.19
51123;BME280;37162;41.724;13.346;2023-02-07T01:46:49;97816.47;;;15.32;50.26
51123;BME280;37162;41.724;13.346;2023-02-07T01:49:19;97814.81;;;15.31;50.36
51123;BME280;37162;41.724;13.346;2023-02-07T01:51:52;97810.50;;;15.30;50.13
51123;BME280;37162;41.724;13.346;2023-02-07T01:54:19;97809.66;;;15.29;50.30
51123;BME280;37162;41.724;13.346;2023-02-07T01:56:51;97815.03;;;15.29;50.18
51123;BME280;37162;41.724;13.346;2023-02-07T01:59:18;97807.75;;;15.23;50.15
51123;BME280;37162;41.724;13.346;2023-02-07T02:01:45;97818.69;;;15.28;50.02
51123;BME280;37162;41.724;13.346;2023-02-07T02:04:11;97817.69;;;15.29;49.95
51123;BME280;37162;41.724;13.346;2023-02-07T02:06:38;97808.81;;;15.29;50.14
51123;BME280;37162;41.724;13.346;2023-02-07T02:09:10;97815.03;;;15.29;50.10
51123;BME280;37162;41.724;13.346;2023-02-07T02:20:07;97792.13;;;15.27;50.10
51123;BME280;37162;41.724;13.346;2023-02-07T02:34:26;97802.63;;;15.28;50.36
51123;BME280;37162;41.724;13.346;2023-02-07T02:37:10;97792.75;;;15.29;50.12
51123;BME280;37162;41.724;13.346;2023-02-07T02:39:49;97786.56;;;15.28;50.06
51123;BME280;37162;41.724;13.346;2023-02-07T02:47:21;97789.06;;;15.30;49.95
51123;BME280;37162;41.724;13.346;2023-02-07T02:49:47;97777.44;;;15.16;49.90
51123;BME280;37162;41.724;13.346;2023-02-07T02:52:13;97795.25;;;15.30;50.08
51123;BME280;37162;41.724;13.346;2023-02-07T02:54:41;97794.44;;;15.30;50.03
51123;BME280;37162;41.724;13.346;2023-02-07T02:57:15;97793.59;;;15.29;49.78
51123;BME280;37162;41.724;13.346;2023-02-07T03:05:12;97815.03;;;15.29;50.04
51123;BME280;37162;41.724;13.346;2023-02-07T03:10:37;97810.88;;;15.27;50.00
51123;BME280;37162;41.724;13.346;2023-02-07T03:16:42;97814.13;;;15.22;49.95
51123;BME280;37162;41.724;13.346;2023-02-07T03:19:29;97806.47;;;15.19;49.95
51123;BME280;37162;41.724;13.346;2023-02-07T03:21:59;97810.44;;;15.23;49.98
51123;BME280;37162;41.724;13.346;2023-02-07T03:24:31;97806.06;;;15.16;49.97
51123;BME280;37162;41.724;13.346;2023-02-07T03:27:01;97807.47;;;15.12;49.90
51123;BME280;37162;41.724;13.346;2023-02-07T03:29:30;97832.66;;;15.24;50.16
51123;BME280;37162;41.724;13.346;2023-02-07T03:31:59;97830.84;;;15.24;50.19
51123;BME280;37162;41.724;13.346;2023-02-07T03:34:33;97835.34;;;15.24;50.24
51123;BME280;37162;41.724;13.346;2023-02-07T03:37:11;97840.69;;;15.24;50.36
51123;BME280;37162;41.724;13.346;2023-02-07T03:39:39;97842.56;;;15.23;50.21
51123;BME280;37162;41.724;13.346;2023-02-07T03:42:29;97832.84;;;15.16;49.92
51123;BME280;37162;41.724;13.346;2023-02-07T03:44:57;97835.06;;;15.12;49.83
51123;BME280;37162;41.724;13.346;2023-02-07T03:47:25;97843.13;;;15.19;49.94
51123;BME280;37162;41.724;13.346;2023-02-07T03:49:50;97852.84;;;15.20;49.98
51123;BME280;37162;41.724;13.346;2023-02-07T03:52:16;97852.84;;;15.20;49.86
51123;BME280;37162;41.724;13.346;2023-02-07T03:54:42;97833.66;;;15.16;49.64
51123;BME280;37162;41.724;13.346;2023-02-07T03:57:07;97831.56;;;15.12;49.50
51123;BME280;37162;41.724;13.346;2023-02-07T03:59:32;97842.97;;;15.20;49.64
51123;BME280;37162;41.724;13.346;2023-02-07T04:01:58;97852.84;;;15.20;49.54
51123;BME280;37162;41.724;13.346;2023-02-07T04:04:23;97833.22;;;15.13;49.71
51123;BME280;37162;41.724;13.346;2023-02-07T04:06:49;97843.97;;;15.19;49.40
51123;BME280;37162;41.724;13.346;2023-02-07T04:09:14;97854.66;;;15.19;49.59
51123;BME280;37162;41.724;13.346;2023-02-07T04:11:40;97852.00;;;15.19;49.52
51123;BME280;37162;41.724;13.346;2023-02-07T04:14:05;97852.00;;;15.19;49.69
51123;BME280;37162;41.724;13.346;2023-02-07T04:16:31;97857.34;;;15.19;49.65
51123;BME280;37162;41.724;13.346;2023-02-07T04:18:56;97855.69;;;15.18;49.66
51123;BME280;37162;41.724;13.346;2023-02-07T04:21:22;97845.00;;;15.18;49.49
51123;BME280;37162;41.724;13.346;2023-02-07T04:23:47;97856.53;;;15.19;49.65
51123;BME280;37162;41.724;13.346;2023-02-07T04:26:13;97852.19;;;15.18;49.74
51123;BME280;37162;41.724;13.346;2023-02-07T04:28:38;97854.06;;;15.17;49.72
51123;BME280;37162;41.724;13.346;2023-02-07T04:31:04;97856.72;;;15.17;49.66
51123;BME280;37162;41.724;13.346;2023-02-07T04:33:29;97848.06;;;15.15;49.62
51123;BME280;37162;41.724;13.346;2023-02-07T04:36:00;97854.88;;;15.18;49.61
51123;BME280;37162;41.724;13.346;2023-02-07T04:38:26;97851.38;;;15.17;49.78
51123;BME280;37162;41.724;13.346;2023-02-07T04:40:57;97851.38;;;15.17;49.94
51123;BME280;37162;41.724;13.346;2023-02-07T04:43:22;97852.19;;;15.18;50.00
51123;BME280;37162;41.724;13.346;2023-02-07T04:45:48;97855.69;;;15.18;50.35
51123;BME280;37162;41.724;13.346;2023-02-07T04:48:14;97832.00;;;15.15;49.98
51123;BME280;37162;41.724;13.346;2023-02-07T04:50:39;97842.53;;;15.17;49.92
51123;BME280;37162;41.724;13.346;2023-02-07T04:53:05;97848.91;;;15.16;49.64
51123;BME280;37162;41.724;13.346;2023-02-07T04:55:30;97853.03;;;15.18;49.66
51123;BME280;37162;41.724;13.346;2023-02-07T04:57:55;97844.38;;;15.16;49.68
51123;BME280;37162;41.724;13.346;2023-02-07T05:00:21;97849.53;;;15.18;49.61
51123;BME280;37162;41.724;13.346;2023-02-07T05:02:46;97850.94;;;15.14;49.48
51123;BME280;37162;41.724;13.346;2023-02-07T05:05:12;97858.59;;;15.17;49.56
51123;BME280;37162;41.724;13.346;2023-02-07T05:07:37;97853.44;;;15.15;49.53
51123;BME280;37162;41.724;13.346;2023-02-07T05:10:03;97855.25;;;15.15;49.50
51123;BME280;37162;41.724;13.346;2023-02-07T05:12:29;97868.84;;;15.13;49.76
51123;BME280;37162;41.724;13.346;2023-02-07T05:14:54;97870.50;;;15.14;49.62
51123;BME280;37162;41.724;13.346;2023-02-07T05:17:20;97872.91;;;15.09;49.81
51123;BME280;37162;41.724;13.346;2023-02-07T05:19:45;97884.28;;;15.11;49.47
51123;BME280;37162;41.724;13.346;2023-02-07T05:22:11;97889.44;;;15.13;49.69
51123;BME280;37162;41.724;13.346;2023-02-07T05:24:36;97900.97;;;15.13;49.48
51123;BME280;37162;41.724;13.346;2023-02-07T05:27:02;97870.81;;;15.04;49.56
51123;BME280;37162;41.724;13.346;2023-02-07T05:29:27;97894.34;;;15.09;49.55
51123;BME280;37162;41.724;13.346;2023-02-07T05:31:52;97888.81;;;15.11;49.46
51123;BME280;37162;41.724;13.346;2023-02-07T05:34:37;97895.16;;;15.09;49.53
51123;BME280;37162;41.724;13.346;2023-02-07T05:37:02;97901.75;;;15.07;49.82
51123;BME280;37162;41.724;13.346;2023-02-07T05:39:27;97881.28;;;14.99;49.57
51123;BME280;37162;41.724;13.346;2023-02-07T05:41:53;97916.78;;;15.08;49.87
51123;BME280;37162;41.724;13.346;2023-02-07T05:44:18;97905.38;;;14.99;49.77
51123;BME280;37162;41.724;13.346;2023-02-07T05:46:44;97910.59;;;15.07;49.73
51123;BME280;37162;41.724;13.346;2023-02-07T05:49:09;97907.88;;;15.01;49.92
51123;BME280;37162;41.724;13.346;2023-02-07T05:51:35;97943.75;;;15.06;49.72
51123;BME280;37162;41.724;13.346;2023-02-07T05:54:00;97910.53;;;15.01;49.65
51123;BME280;37162;41.724;13.346;2023-02-07T05:56:26;97927.69;;;15.06;49.47
51123;BME280;37162;41.724;13.346;2023-02-07T05:58:51;97919.81;;;15.05;49.33
51123;BME280;37162;41.724;13.346;2023-02-07T06:01:17;97937.34;;;15.07;49.47
51123;BME280;37162;41.724;13.346;2023-02-07T06:03:43;97944.56;;;15.07;49.50
51123;BME280;37162;41.724;13.346;2023-02-07T06:06:08;97929.53;;;15.06;49.36
51123;BME280;37162;41.724;13.346;2023-02-07T06:08:34;97899.22;;;15.05;49.64
51123;BME280;37162;41.724;13.346;2023-02-07T06:10:59;97893.06;;;15.05;49.69
51123;BME280;37162;41.724;13.346;2023-02-07T06:13:25;97890.38;;;15.05;49.82
51123;BME280;37162;41.724;13.346;2023-02-07T06:15:50;97880.00;;;14.95;49.84
51123;BME280;37162;41.724;13.346;2023-02-07T06:18:16;97895.94;;;15.03;49.97
51123;BME280;37162;41.724;13.346;2023-02-07T06:20:41;97911.16;;;15.03;49.96
51123;BME280;37162;41.724;13.346;2023-02-07T06:23:07;97905.00;;;15.02;50.00
51123;BME280;37162;41.724;13.346;2023-02-07T06:25:32;97897.78;;;15.03;50.10
51123;BME280;37162;41.724;13.346;2023-02-07T06:27:57;97924.56;;;15.03;50.03
51123;BME280;37162;41.724;13.346;2023-02-07T06:30:23;97905.81;;;15.03;50.15
51123;BME280;37162;41.724;13.346;2023-02-07T06:32:48;97912.19;;;15.02;50.28
51123;BME280;37162;41.724;13.346;2023-02-07T06:35:14;97896.97;;;15.02;50.44
51123;BME280;37162;41.724;13.346;2023-02-07T06:37:39;97906.34;;;14.92;50.36
51123;BME280;37162;41.724;13.346;2023-02-07T06:40:05;97927.81;;;14.98;50.39
51123;BME280;37162;41.724;13.346;2023-02-07T06:42:31;97927.44;;;15.01;50.02
51123;BME280;37162;41.724;13.346;2023-02-07T06:44:57;97937.72;;;15.04;50.06
51123;BME280;37162;41.724;13.346;2023-02-07T06:47:22;97909.63;;;14.94;49.67
51123;BME280;37162;41.724;13.346;2023-02-07T06:49:48;97917.91;;;14.99;49.75
51123;BME280;37162;41.724;13.346;2023-02-07T06:52:13;97936.69;;;15.05;49.77
51123;BME280;37162;41.724;13.346;2023-02-07T06:54:39;97931.34;;;15.05;49.81
51123;BME280;37162;41.724;13.346;2023-02-07T06:57:04;97943.53;;;15.08;49.98
51123;BME280;37162;41.724;13.346;2023-02-07T06:59:30;97947.88;;;15.09;49.94
51123;BME280;37162;41.724;13.346;2023-02-07T07:01:55;97941.88;;;15.07;49.69
51123;BME280;37162;41.724;13.346;2023-02-07T07:04:21;97945.00;;;15.11;49.40
51123;BME280;37162;41.724;13.346;2023-02-07T07:06:46;97948.50;;;15.11;49.20
51123;BME280;37162;41.724;13.346;2023-02-07T07:09:12;97930.72;;;15.03;49.24
51123;BME280;37162;41.724;13.346;2023-02-07T07:11:41;97941.94;;;15.14;49.11
51123;BME280;37162;41.724;13.346;2023-02-07T07:14:09;97938.63;;;15.12;49.04
51123;BME280;37162;41.724;13.346;2023-02-07T07:16:34;97929.53;;;15.06;49.22
51123;BME280;37162;41.724;13.346;2023-02-07T07:19:00;97956.59;;;15.18;49.07
51123;BME280;37162;41.724;13.346;2023-02-07T07:21:25;97957.41;;;15.18;49.40
51123;BME280;37162;41.724;13.346;2023-02-07T07:23:53;97961.75;;;15.19;49.41
51123;BME280;37162;41.724;13.346;2023-02-07T07:26:18;97945.88;;;15.18;49.36
51123;BME280;37162;41.724;13.346;2023-02-07T07:28:44;97939.25;;;15.14;49.48
51123;BME280;37162;41.724;13.346;2023-02-07T07:31:10;97934.56;;;15.16;49.63
51123;BME280;37162;41.724;13.346;2023-02-07T07:33:36;97956.84;;;15.23;49.69
51123;BME280;37162;41.724;13.346;2023-02-07T07:36:02;97953.34;;;15.22;49.51
51123;BME280;37162;41.724;13.346;2023-02-07T07:38:28;97940.91;;;15.15;49.45
51123;BME280;37162;41.724;13.346;2023-02-07T07:40:54;97957.28;;;15.26;49.39
51123;BME280;37162;41.724;13.346;2023-02-07T07:43:19;97965.94;;;15.28;49.47
51123;BME280;37162;41.724;13.346;2023-02-07T07:45:50;97965.78;;;15.30;49.40
51123;BME280;37162;41.724;13.346;2023-02-07T07:48:15;97967.22;;;15.32;49.42
51123;BME280;37162;41.724;13.346;2023-02-07T07:50:41;97978.59;;;15.34;49.46
51123;BME280;37162;41.724;13.346;2023-02-07T07:53:06;97965.81;;;15.37;48.85
51123;BME280;37162;41.724;13.346;2023-02-07T07:55:31;97971.63;;;15.40;48.84
51123;BME280;37162;41.724;13.346;2023-02-07T07:57:57;97954.97;;;15.45;48.64
51123;BME280;37162;41.724;13.346;2023-02-07T08:00:22;97966.31;;;15.47;48.04
51123;BME280;37162;41.724;13.346;2023-02-07T08:02:48;97951.50;;;15.51;47.96
51123;BME280;37162;41.724;13.346;2023-02-07T08:05:13;97969.88;;;15.54;48.01
51123;BME280;37162;41.724;13.346;2023-02-07T08:07:39;97970.13;;;15.59;47.89
51123;BME280;37162;41.724;13.346;2023-02-07T08:10:05;97968.66;;;15.56;46.74
51123;BME280;37162;41.724;13.346;2023-02-07T08:12:30;97972.88;;;15.66;46.94
51123;BME280;37162;41.724;13.346;2023-02-07T08:14:56;97951.44;;;15.66;46.40
51123;BME280;37162;41.724;13.346;2023-02-07T08:17:21;97960.53;;;15.71;45.40
51123;BME280;37162;41.724;13.346;2023-02-07T08:19:47;97956.44;;;15.69;45.74
51123;BME280;37162;41.724;13.346;2023-02-07T08:22:12;97984.72;;;15.78;45.87
51123;BME280;37162;41.724;13.346;2023-02-07T08:24:38;97987.19;;;15.79;46.14
51123;BME280;37162;41.724;13.346;2023-02-07T08:27:05;97985.16;;;15.81;46.15
51123;BME280;37162;41.724;13.346;2023-02-07T08:29:31;97964.16;;;15.85;46.00
51123;BME280;37162;41.724;13.346;2023-02-07T08:31:56;97971.38;;;15.84;45.89
51123;BME280;37162;41.724;13.346;2023-02-07T08:34:22;97982.31;;;15.90;46.24
51123;BME280;37162;41.724;13.346;2023-02-07T08:36:50;97992.44;;;15.94;46.35
51123;BME280;37162;41.724;13.346;2023-02-07T08:39:16;97982.38;;;15.96;45.88
51123;BME280;37162;41.724;13.346;2023-02-07T08:41:41;97957.44;;;15.96;45.98
51123;BME280;37162;41.724;13.346;2023-02-07T08:44:07;97965.72;;;16.01;45.93
51123;BME280;37162;41.724;13.346;2023-02-07T08:46:32;97951.44;;;15.94;45.95
51123;BME280;37162;41.724;13.346;2023-02-07T08:48:57;97957.47;;;16.02;46.78
51123;BME280;37162;41.724;13.346;2023-02-07T08:51:23;97965.50;;;16.02;44.18
51123;BME280;37162;41.724;13.346;2023-02-07T08:53:48;97961.63;;;16.05;43.01
51123;BME280;37162;41.724;13.346;2023-02-07T08:56:14;97959.41;;;16.15;44.60
51123;BME280;37162;41.724;13.346;2023-02-07T08:58:39;97943.69;;;16.12;46.28
51123;BME280;37162;41.724;13.346;2023-02-07T09:01:05;97959.34;;;16.08;45.47
51123;BME280;37162;41.724;13.346;2023-02-07T09:03:45;97979.13;;;16.07;41.19
51123;BME280;37162;41.724;13.346;2023-02-07T09:06:10;97996.03;;;16.08;40.81
51123;BME280;37162;41.724;13.346;2023-02-07T09:08:36;97983.22;;;16.03;40.98
51123;BME280;37162;41.724;13.346;2023-02-07T09:11:02;97997.53;;;16.10;41.53
51123;BME280;37162;41.724;13.346;2023-02-07T09:13:27;98000.66;;;16.14;41.80
51123;BME280;37162;41.724;13.346;2023-02-07T09:15:56;97995.06;;;16.16;42.67
51123;BME280;37162;41.724;13.346;2023-02-07T09:18:24;97998.38;;;16.18;42.92
51123;BME280;37162;41.724;13.346;2023-02-07T09:20:52;97990.09;;;16.13;43.46
51123;BME280;37162;41.724;13.346;2023-02-07T09:23:18;98000.66;;;16.21;42.66
51123;BME280;37162;41.724;13.346;2023-02-07T09:25:48;98010.38;;;16.22;43.32
51123;BME280;37162;41.724;13.346;2023-02-07T09:28:15;98010.19;;;16.23;44.03
51123;BME280;37162;41.724;13.346;2023-02-07T09:30:42;98011.59;;;16.19;44.17
51123;BME280;37162;41.724;13.346;2023-02-07T09:33:08;98015.50;;;16.17;44.06
51123;BME280;37162;41.724;13.346;2023-02-07T09:35:42;98013.84;;;16.16;44.13
51123;BME280;37162;41.724;13.346;2023-02-07T09:38:14;98006.25;;;16.19;44.11
51123;BME280;37162;41.724;13.346;2023-02-07T09:40:40;98003.50;;;16.13;44.23
51123;BME280;37162;41.724;13.346;2023-02-07T09:43:34;98021.31;;;16.27;44.50
51123;BME280;37162;41.724;13.346;2023-02-07T09:46:11;98026.31;;;16.30;44.65
51123;BME280;37162;41.724;13.346;2023-02-07T09:51:07;98009.78;;;16.26;45.14
51123;BME280;37162;41.724;13.346;2023-02-07T09:54:03;98011.25;;;16.35;45.01
51123;BME280;37162;41.724;13.346;2023-02-07T09:56:29;98012.16;;;16.43;44.86
51123;BME280;37162;41.724;13.346;2023-02-07T10:01:45;97997.91;;;16.42;44.71
51123;BME280;37162;41.724;13.346;2023-02-07T10:06:52;98004.63;;;16.31;42.18
51123;BME280;37162;41.724;13.346;2023-02-07T10:09:23;98007.91;;;16.27;40.96
51123;BME280;37162;41.724;13.346;2023-02-07T10:30:42;97985.47;;;16.34;38.72
51123;BME280;37162;41.724;13.346;2023-02-07T10:33:16;97989.44;;;16.39;38.43
51123;BME280;37162;41.724;13.346;2023-02-07T10:35:43;97970.22;;;16.42;38.24
51123;BME280;37162;41.724;13.346;2023-02-07T10:41:13;97984.72;;;16.47;40.36
51123;BME280;37162;41.724;13.346;2023-02-07T10:43:42;97976.63;;;16.41;41.25
51123;BME280;37162;41.724;13.346;2023-02-07T10:46:14;97980.41;;;16.53;41.79
51123;BME280;37162;41.724;13.346;2023-02-07T10:48:40;97972.16;;;16.54;42.10
51123;BME280;37162;41.724;13.346;2023-02-07T10:53:49;97969.91;;;16.58;42.23
51123;BME280;37162;41.724;13.346;2023-02-07T10:56:19;97967.00;;;16.59;42.26
51123;BME280;37162;41.724;13.346;2023-02-07T10:58:46;97974.88;;;16.61;42.45
51123;BME280;37162;41.724;13.346;2023-02-07T11:01:19;97961.41;;;16.54;42.81
51123;BME280;37162;41.724;13.346;2023-02-07T11:03:46;97969.72;;;16.66;43.11
51123;BME280;37162;41.724;13.346;2023-02-07T11:06:32;97969.53;;;16.68;43.16
51123;BME280;37162;41.724;13.346;2023-02-07T11:09:22;97962.06;;;16.63;43.11
51123;BME280;37162;41.724;13.346;2023-02-07T11:11:49;97975.75;;;16.75;43.13
51123;BME280;37162;41.724;13.346;2023-02-07T11:14:20;97973.72;;;16.77;43.21
51123;BME280;37162;41.724;13.346;2023-02-07T11:16:51;97972.47;;;16.79;43.08
51123;BME280;37162;41.724;13.346;2023-02-07T11:19:23;97954.09;;;16.76;43.23
51123;BME280;37162;41.724;13.346;2023-02-07T11:21:52;97963.63;;;16.85;43.17
51123;BME280;37162;41.724;13.346;2023-02-07T11:24:28;97960.34;;;16.90;43.04
51123;BME280;37162;41.724;13.346;2023-02-07T11:27:16;97964.66;;;16.91;41.65
51123;BME280;37162;41.724;13.346;2023-02-07T11:29:55;97948.75;;;16.83;40.43
51123;BME280;37162;41.724;13.346;2023-02-07T11:32:22;97959.09;;;16.93;41.19
51123;BME280;37162;41.724;13.346;2023-02-07T11:34:53;97964.06;;;16.96;41.73
51123;BME280;37162;41.724;13.346;2023-02-07T11:37:32;97953.94;;;16.98;41.65
51123;BME280;37162;41.724;13.346;2023-02-07T11:40:28;97963.22;;;17.02;42.36
51123;BME280;37162;41.724;13.346;2023-02-07T11:43:01;97955.00;;;17.03;42.56
51123;BME280;37162;41.724;13.346;2023-02-07T11:45:29;97954.78;;;17.05;42.31
51123;BME280;37162;41.724;13.346;2023-02-07T11:47:56;97942.78;;;17.07;42.54
51123;BME280;37162;41.724;13.346;2023-02-07T11:50:24;97948.59;;;17.11;42.64
51123;BME280;37162;41.724;13.346;2023-02-07T11:52:54;97917.41;;;17.03;42.60
51123;BME280;37162;41.724;13.346;2023-02-07T11:55:23;97931.03;;;17.15;42.77
51123;BME280;37162;41.724;13.346;2023-02-07T11:57:50;97924.63;;;17.16;42.82
51123;BME280;37162;41.724;13.346;2023-02-07T12:00:19;97930.81;;;17.17;43.27
51123;BME280;37162;41.724;13.346;2023-02-07T12:02:59;97925.25;;;17.18;43.13
51123;BME280;37162;41.724;13.346;2023-02-07T12:05:31;97922.97;;;17.15;43.30
51123;BME280;37162;41.724;13.346;2023-02-07T12:08:02;97917.41;;;17.17;43.28
51123;BME280;37162;41.724;13.346;2023-02-07T12:10:35;97910.38;;;17.16;43.71
51123;BME280;37162;41.724;13.346;2023-02-07T12:13:06;97914.09;;;17.21;43.69
51123;BME280;37162;41.724;13.346;2023-02-07T12:15:51;97918.03;;;17.19;43.90
51123;BME280;37162;41.724;13.346;2023-02-07T12:18:40;97918.84;;;17.19;44.04
51123;BME280;37162;41.724;13.346;2023-02-07T12:21:18;97901.91;;;17.19;43.84
51123;BME280;37162;41.724;13.346;2023-02-07T12:24:06;97898.41;;;17.18;44.21
51123;BME280;37162;41.724;13.346;2023-02-07T12:26:48;97895.91;;;17.17;44.11
51123;BME280;37162;41.724;13.346;2023-02-07T12:35:16;97886.44;;;17.14;43.94
51123;BME280;37162;41.724;13.346;2023-02-07T12:37:43;97877.72;;;17.12;43.75
51123;BME280;37162;41.724;13.346;2023-02-07T12:42:39;97871.97;;;17.08;43.51
51123;BME280;37162;41.724;13.346;2023-02-07T12:45:20;97871.78;;;17.03;42.88
51123;BME280;37162;41.724;13.346;2023-02-07T12:47:57;97858.94;;;16.92;42.69
51123;BME280;37162;41.724;13.346;2023-02-07T12:53:35;97858.50;;;16.89;43.25
51123;BME280;37162;41.724;13.346;2023-02-07T12:56:14;97849.88;;;16.80;42.65
51123;BME280;37162;41.724;13.346;2023-02-07T13:06:51;97851.22;;;16.56;45.68
51123;BME280;37162;41.724;13.346;2023-02-07T13:12:17;97852.22;;;16.42;45.84
51123;BME280;37162;41.724;13.346;2023-02-07T13:21:16;97848.06;;;16.26;46.28
51123;BME280;37162;41.724;13.346;2023-02-07T13:23:40;97854.03;;;16.21;46.47
51123;BME280;37162;41.724;13.346;2023-02-07T13:26:10;97851.13;;;16.16;46.66
51123;BME280;37162;41.724;13.346;2023-02-07T13:28:57;97852.53;;;16.12;47.06
51123;BME280;37162;41.724;13.346;2023-02-07T13:31:36;97845.31;;;16.06;47.36
51123;BME280;37162;41.724;13.346;2023-02-07T13:34:04;97850.63;;;15.99;47.34
51123;BME280;37162;41.724;13.346;2023-02-07T13:49:59;97849.94;;;15.84;48.25
51123;BME280;37162;41.724;13.346;2023-02-07T14:00:23;97846.22;;;15.78;48.37
51123;BME280;37162;41.724;13.346;2023-02-07T14:03:01;97855.53;;;15.82;48.47
51123;BME280;37162;41.724;13.346;2023-02-07T14:05:28;97855.72;;;15.81;48.23
51123;BME280;37162;41.724;13.346;2023-02-07T14:08:03;97855.91;;;15.79;48.36
51123;BME280;37162;41.724;13.346;2023-02-07T14:10:47;97857.75;;;15.79;48.36
51123;BME280;37162;41.724;13.346;2023-02-07T14:16:09;97853.66;;;15.76;48.55
51123;BME280;37162;41.724;13.346;2023-02-07T14:21:36;97855.69;;;15.74;48.45
51123;BME280;37162;41.724;13.346;2023-02-07T14:31:54;97853.81;;;15.68;48.62
51123;BME280;37162;41.724;13.346;2023-02-07T14:34:22;97844.72;;;15.69;48.66
51123;BME280;37162;41.724;13.346;2023-02-07T14:36:49;97850.69;;;15.65;48.66
51123;BME280;37162;41.724;13.346;2023-02-07T14:41:43;97846.78;;;15.67;48.68
51123;BME280;37162;41.724;13.346;2023-02-07T14:44:31;97844.13;;;15.67;48.71
51123;BME280;37162;41.724;13.346;2023-02-07T14:46:59;97835.81;;;15.62;48.96
51123;BME280;37162;41.724;13.346;2023-02-07T14:49:47;97826.31;;;15.59;49.19
51123;BME280;37162;41.724;13.346;2023-02-07T14:52:32;97836.25;;;15.66;49.50
51123;BME280;37162;41.724;13.346;2023-02-07T15:00:25;97832.06;;;15.56;49.57
51123;BME280;37162;41.724;13.346;2023-02-07T15:02:57;97836.47;;;15.64;49.47
51123;BME280;37162;41.724;13.346;2023-02-07T15:05:35;97843.69;;;15.64;49.29
51123;BME280;37162;41.724;13.346;2023-02-07T15:12:58;97822.13;;;15.50;49.18
51123;BME280;37162;41.724;13.346;2023-02-07T15:17:51;97821.09;;;15.51;49.24
51123;BME280;37162;41.724;13.346;2023-02-07T15:20:27;97836.19;;;15.59;49.13
51123;BME280;37162;41.724;13.346;2023-02-07T15:22:54;97834.72;;;15.56;49.14
51123;BME280;37162;41.724;13.346;2023-02-07T15:25:20;97836.41;;;15.57;49.09
51123;BME280;37162;41.724;13.346;2023-02-07T15:28:05;97843.59;;;15.57;49.21
51123;BME280;37162;41.724;13.346;2023-02-07T15:30:32;97843.78;;;15.55;49.34